Bigfork, Minnesota
Current Conditions -  °F | °C
As of 6:13 AM on Thursday 29 Jan 2015 (Local Time) from KFOZ Reporting Station
Overcast Overcast  
Wind Chill: 14°   Ceiling: 800
Heat Index: 21°   Visibility: 10mi
Dew Point: 18°   Wind: 6mph
Humidity: 86%   Direction: 330°NNW
Pressure: 30.08"   Gusts: 16mph
Location:  47.74°N, 93.65°W
Report Text: KFOZ 291213Z AUTO 33005G14KT 10SM OVC008 M06/M08 A3008 RMK AO2
Loading
Personal Weather Stations






























Interactive Weather Map New forecast layout! Learn more

10-Day Weather Forecast

Advertisements
Track Severe Weather on mobile